sensor_id;sensor_type;location;lat;lon;timestamp;temperature;humidity
27900;DHT22;15243;50.726;7.080;2022-09-27T00:01:52;10.80;99.90
27900;DHT22;15243;50.726;7.080;2022-09-27T00:04:19;10.70;99.90
27900;DHT22;15243;50.726;7.080;2022-09-27T00:06:45;10.60;99.90
27900;DHT22;15243;50.726;7.080;2022-09-27T00:09:12;10.60;99.90
27900;DHT22;15243;50.726;7.080;2022-09-27T00:11:40;10.50;99.90
27900;DHT22;15243;50.726;7.080;2022-09-27T00:14:11;10.50;99.90
27900;DHT22;15243;50.726;7.080;2022-09-27T00:16:39;10.40;99.90
27900;DHT22;15243;50.726;7.080;2022-09-27T00:19:13;10.30;99.90
27900;DHT22;15243;50.726;7.080;2022-09-27T00:21:42;10.20;99.90
27900;DHT22;15243;50.726;7.080;2022-09-27T00:24:14;10.10;99.90
27900;DHT22;15243;50.726;7.080;2022-09-27T00:26:41;10.10;99.90
27900;DHT22;15243;50.726;7.080;2022-09-27T00:29:09;10.10;99.90
27900;DHT22;15243;50.726;7.080;2022-09-27T00:31:36;10.10;99.90
27900;DHT22;15243;50.726;7.080;2022-09-27T00:34:05;10.00;99.90
27900;DHT22;15243;50.726;7.080;2022-09-27T00:36:33;10.10;99.90
27900;DHT22;15243;50.726;7.080;2022-09-27T00:39:00;10.00;99.90
27900;DHT22;15243;50.726;7.080;2022-09-27T00:41:30;9.90;99.90
27900;DHT22;15243;50.726;7.080;2022-09-27T00:44:03;9.90;99.90
27900;DHT22;15243;50.726;7.080;2022-09-27T00:49:22;10.00;99.90
27900;DHT22;15243;50.726;7.080;2022-09-27T00:51:55;9.90;99.90
27900;DHT22;15243;50.726;7.080;2022-09-27T00:54:25;9.90;99.90
27900;DHT22;15243;50.726;7.080;2022-09-27T00:56:53;9.90;99.90
27900;DHT22;15243;50.726;7.080;2022-09-27T00:59:27;9.90;99.90
27900;DHT22;15243;50.726;7.080;2022-09-27T01:01:56;9.90;99.90
27900;DHT22;15243;50.726;7.080;2022-09-27T01:04:26;9.90;99.90
27900;DHT22;15243;50.726;7.080;2022-09-27T01:06:53;10.00;99.90
27900;DHT22;15243;50.726;7.080;2022-09-27T01:09:20;9.90;99.90
27900;DHT22;15243;50.726;7.080;2022-09-27T01:12:16;10.00;99.90
27900;DHT22;15243;50.726;7.080;2022-09-27T01:28:50;9.80;99.90
27900;DHT22;15243;50.726;7.080;2022-09-27T01:31:23;9.90;99.90
27900;DHT22;15243;50.726;7.080;2022-09-27T01:34:00;9.90;99.90
27900;DHT22;15243;50.726;7.080;2022-09-27T01:42:10;9.80;99.90
27900;DHT22;15243;50.726;7.080;2022-09-27T01:44:45;9.70;99.90
27900;DHT22;15243;50.726;7.080;2022-09-27T01:47:16;9.80;99.90
27900;DHT22;15243;50.726;7.080;2022-09-27T01:52:17;9.80;99.90
27900;DHT22;15243;50.726;7.080;2022-09-27T01:54:49;9.80;99.90
27900;DHT22;15243;50.726;7.080;2022-09-27T01:57:36;9.80;99.90
27900;DHT22;15243;50.726;7.080;2022-09-27T02:00:09;9.70;99.90
27900;DHT22;15243;50.726;7.080;2022-09-27T02:02:58;9.80;99.90
27900;DHT22;15243;50.726;7.080;2022-09-27T02:05:30;9.80;99.90
27900;DHT22;15243;50.726;7.080;2022-09-27T02:08:03;9.70;99.90
27900;DHT22;15243;50.726;7.080;2022-09-27T02:10:36;9.60;99.90
27900;DHT22;15243;50.726;7.080;2022-09-27T02:13:23;9.70;99.90
27900;DHT22;15243;50.726;7.080;2022-09-27T02:16:05;9.70;99.90
27900;DHT22;15243;50.726;7.080;2022-09-27T02:18:49;9.70;99.90
27900;DHT22;15243;50.726;7.080;2022-09-27T02:21:20;9.70;99.90
27900;DHT22;15243;50.726;7.080;2022-09-27T02:23:56;9.80;99.90
27900;DHT22;15243;50.726;7.080;2022-09-27T02:26:37;9.70;99.90
27900;DHT22;15243;50.726;7.080;2022-09-27T02:29:18;9.70;99.90
27900;DHT22;15243;50.726;7.080;2022-09-27T02:31:45;9.70;99.90
27900;DHT22;15243;50.726;7.080;2022-09-27T02:34:20;9.70;99.90
27900;DHT22;15243;50.726;7.080;2022-09-27T02:36:48;9.70;99.90
27900;DHT22;15243;50.726;7.080;2022-09-27T02:39:16;9.70;99.90
27900;DHT22;15243;50.726;7.080;2022-09-27T02:41:44;9.70;99.90
27900;DHT22;15243;50.726;7.080;2022-09-27T02:44:12;9.70;99.90
27900;DHT22;15243;50.726;7.080;2022-09-27T02:47:02;9.60;99.90
27900;DHT22;15243;50.726;7.080;2022-09-27T02:55:23;9.60;99.90
27900;DHT22;15243;50.726;7.080;2022-09-27T03:04:11;9.70;99.90
27900;DHT22;15243;50.726;7.080;2022-09-27T03:06:43;9.70;99.90
27900;DHT22;15243;50.726;7.080;2022-09-27T03:09:22;9.70;99.90
27900;DHT22;15243;50.726;7.080;2022-09-27T03:11:50;9.60;99.90
27900;DHT22;15243;50.726;7.080;2022-09-27T03:14:17;9.60;99.90
27900;DHT22;15243;50.726;7.080;2022-09-27T03:16:43;9.50;99.90
27900;DHT22;15243;50.726;7.080;2022-09-27T03:19:10;9.60;99.90
27900;DHT22;15243;50.726;7.080;2022-09-27T03:21:37;9.60;99.90
27900;DHT22;15243;50.726;7.080;2022-09-27T03:24:04;9.60;99.90
27900;DHT22;15243;50.726;7.080;2022-09-27T03:26:31;9.60;99.90
27900;DHT22;15243;50.726;7.080;2022-09-27T03:28:58;9.60;99.90
27900;DHT22;15243;50.726;7.080;2022-09-27T03:31:25;9.60;99.90
27900;DHT22;15243;50.726;7.080;2022-09-27T03:33:52;9.50;99.90
27900;DHT22;15243;50.726;7.080;2022-09-27T03:36:19;9.50;99.90
27900;DHT22;15243;50.726;7.080;2022-09-27T03:38:46;9.50;99.90
27900;DHT22;15243;50.726;7.080;2022-09-27T03:41:12;9.50;99.90
27900;DHT22;15243;50.726;7.080;2022-09-27T03:43:39;9.50;99.90
27900;DHT22;15243;50.726;7.080;2022-09-27T03:46:06;9.50;99.90
27900;DHT22;15243;50.726;7.080;2022-09-27T03:48:33;9.50;99.90
27900;DHT22;15243;50.726;7.080;2022-09-27T03:51:00;9.50;99.90
27900;DHT22;15243;50.726;7.080;2022-09-27T03:53:27;9.40;99.90
27900;DHT22;15243;50.726;7.080;2022-09-27T03:55:54;9.50;99.90
27900;DHT22;15243;50.726;7.080;2022-09-27T03:58:21;9.40;99.90
27900;DHT22;15243;50.726;7.080;2022-09-27T04:00:48;9.40;99.90
27900;DHT22;15243;50.726;7.080;2022-09-27T04:03:15;9.40;99.90
27900;DHT22;15243;50.726;7.080;2022-09-27T04:05:43;9.50;99.90
27900;DHT22;15243;50.726;7.080;2022-09-27T04:08:10;9.40;99.90
27900;DHT22;15243;50.726;7.080;2022-09-27T04:10:37;9.40;99.90
27900;DHT22;15243;50.726;7.080;2022-09-27T04:13:04;9.40;99.90
27900;DHT22;15243;50.726;7.080;2022-09-27T04:15:31;9.50;99.90
27900;DHT22;15243;50.726;7.080;2022-09-27T04:17:58;9.40;99.90
27900;DHT22;15243;50.726;7.080;2022-09-27T04:20:25;9.30;99.90
27900;DHT22;15243;50.726;7.080;2022-09-27T04:22:52;9.30;99.90
27900;DHT22;15243;50.726;7.080;2022-09-27T04:25:19;9.30;99.90
27900;DHT22;15243;50.726;7.080;2022-09-27T04:27:46;9.30;99.90
27900;DHT22;15243;50.726;7.080;2022-09-27T04:30:14;9.20;99.90
27900;DHT22;15243;50.726;7.080;2022-09-27T04:32:42;9.20;99.90
27900;DHT22;15243;50.726;7.080;2022-09-27T04:35:13;9.10;99.90
27900;DHT22;15243;50.726;7.080;2022-09-27T04:37:59;9.20;99.90
27900;DHT22;15243;50.726;7.080;2022-09-27T04:40:26;9.10;99.90
27900;DHT22;15243;50.726;7.080;2022-09-27T04:42:54;9.10;99.90
27900;DHT22;15243;50.726;7.080;2022-09-27T04:45:20;9.10;99.90
27900;DHT22;15243;50.726;7.080;2022-09-27T04:47:49;9.10;99.90
27900;DHT22;15243;50.726;7.080;2022-09-27T04:50:16;9.10;99.90
27900;DHT22;15243;50.726;7.080;2022-09-27T04:52:44;9.00;99.90
27900;DHT22;15243;50.726;7.080;2022-09-27T04:55:15;9.10;99.90
27900;DHT22;15243;50.726;7.080;2022-09-27T04:57:42;9.10;99.90
27900;DHT22;15243;50.726;7.080;2022-09-27T05:00:09;9.10;99.90
27900;DHT22;15243;50.726;7.080;2022-09-27T05:02:36;9.10;99.90
27900;DHT22;15243;50.726;7.080;2022-09-27T05:05:03;9.00;99.90
27900;DHT22;15243;50.726;7.080;2022-09-27T05:07:32;9.10;99.90
27900;DHT22;15243;50.726;7.080;2022-09-27T05:09:59;9.10;99.90
27900;DHT22;15243;50.726;7.080;2022-09-27T05:12:26;9.10;99.90
27900;DHT22;15243;50.726;7.080;2022-09-27T05:14:53;9.00;99.90
27900;DHT22;15243;50.726;7.080;2022-09-27T05:17:20;9.00;99.90
27900;DHT22;15243;50.726;7.080;2022-09-27T05:19:48;8.90;99.90
27900;DHT22;15243;50.726;7.080;2022-09-27T05:22:15;9.00;99.90
27900;DHT22;15243;50.726;7.080;2022-09-27T05:24:42;9.00;99.90
27900;DHT22;15243;50.726;7.080;2022-09-27T05:27:12;9.10;99.90
27900;DHT22;15243;50.726;7.080;2022-09-27T05:29:40;9.00;99.90
27900;DHT22;15243;50.726;7.080;2022-09-27T05:32:07;9.00;99.90
27900;DHT22;15243;50.726;7.080;2022-09-27T05:34:34;9.00;99.90
27900;DHT22;15243;50.726;7.080;2022-09-27T05:37:01;8.90;99.90
27900;DHT22;15243;50.726;7.080;2022-09-27T05:39:28;9.00;99.90
27900;DHT22;15243;50.726;7.080;2022-09-27T05:41:55;8.90;99.90
27900;DHT22;15243;50.726;7.080;2022-09-27T05:44:23;9.00;99.90
27900;DHT22;15243;50.726;7.080;2022-09-27T05:46:51;9.00;99.90
27900;DHT22;15243;50.726;7.080;2022-09-27T05:49:18;9.00;99.90
27900;DHT22;15243;50.726;7.080;2022-09-27T05:51:46;9.00;99.90
27900;DHT22;15243;50.726;7.080;2022-09-27T05:54:13;9.10;99.90
27900;DHT22;15243;50.726;7.080;2022-09-27T05:56:40;9.00;99.90
27900;DHT22;15243;50.726;7.080;2022-09-27T05:59:07;9.00;99.90
27900;DHT22;15243;50.726;7.080;2022-09-27T06:01:34;9.00;99.90
27900;DHT22;15243;50.726;7.080;2022-09-27T06:04:02;9.00;99.90
27900;DHT22;15243;50.726;7.080;2022-09-27T06:06:31;9.10;99.90
27900;DHT22;15243;50.726;7.080;2022-09-27T06:08:59;9.10;99.90
27900;DHT22;15243;50.726;7.080;2022-09-27T06:11:27;9.10;99.90
27900;DHT22;15243;50.726;7.080;2022-09-27T06:13:54;9.00;99.90
27900;DHT22;15243;50.726;7.080;2022-09-27T06:16:24;9.10;99.90
27900;DHT22;15243;50.726;7.080;2022-09-27T06:18:51;9.10;99.90
27900;DHT22;15243;50.726;7.080;2022-09-27T06:21:18;9.20;99.90
27900;DHT22;15243;50.726;7.080;2022-09-27T06:23:45;9.30;99.90
27900;DHT22;15243;50.726;7.080;2022-09-27T06:26:18;9.30;99.90
27900;DHT22;15243;50.726;7.080;2022-09-27T06:28:47;9.30;99.90
27900;DHT22;15243;50.726;7.080;2022-09-27T06:31:16;9.20;99.90
27900;DHT22;15243;50.726;7.080;2022-09-27T06:33:43;9.30;99.90
27900;DHT22;15243;50.726;7.080;2022-09-27T06:36:11;9.30;99.90
27900;DHT22;15243;50.726;7.080;2022-09-27T06:38:39;9.30;99.90
27900;DHT22;15243;50.726;7.080;2022-09-27T06:41:06;9.30;99.90
27900;DHT22;15243;50.726;7.080;2022-09-27T06:43:34;9.40;99.90
27900;DHT22;15243;50.726;7.080;2022-09-27T06:46:03;9.60;99.90
27900;DHT22;15243;50.726;7.080;2022-09-27T06:48:34;9.50;99.90
27900;DHT22;15243;50.726;7.080;2022-09-27T06:51:03;9.60;99.90
27900;DHT22;15243;50.726;7.080;2022-09-27T06:53:29;9.70;99.90
27900;DHT22;15243;50.726;7.080;2022-09-27T06:55:58;9.80;99.90
27900;DHT22;15243;50.726;7.080;2022-09-27T06:58:27;9.80;99.90
27900;DHT22;15243;50.726;7.080;2022-09-27T07:01:13;9.80;99.90
27900;DHT22;15243;50.726;7.080;2022-09-27T07:03:40;10.00;99.90
27900;DHT22;15243;50.726;7.080;2022-09-27T07:06:20;10.10;99.90
27900;DHT22;15243;50.726;7.080;2022-09-27T07:08:50;10.10;99.90
27900;DHT22;15243;50.726;7.080;2022-09-27T07:11:18;10.10;99.90
27900;DHT22;15243;50.726;7.080;2022-09-27T07:13:45;10.00;99.90
27900;DHT22;15243;50.726;7.080;2022-09-27T07:16:12;10.10;99.90
27900;DHT22;15243;50.726;7.080;2022-09-27T07:18:40;10.00;99.90
27900;DHT22;15243;50.726;7.080;2022-09-27T07:21:08;10.00;99.90
27900;DHT22;15243;50.726;7.080;2022-09-27T07:23:36;10.10;99.90
27900;DHT22;15243;50.726;7.080;2022-09-27T07:26:03;10.10;99.90
27900;DHT22;15243;50.726;7.080;2022-09-27T07:28:33;10.00;99.90
27900;DHT22;15243;50.726;7.080;2022-09-27T07:31:00;9.90;99.90
27900;DHT22;15243;50.726;7.080;2022-09-27T07:33:29;10.00;99.90
27900;DHT22;15243;50.726;7.080;2022-09-27T07:35:56;10.00;99.90
27900;DHT22;15243;50.726;7.080;2022-09-27T07:38:23;9.90;99.90
27900;DHT22;15243;50.726;7.080;2022-09-27T07:40:50;10.10;99.90
27900;DHT22;15243;50.726;7.080;2022-09-27T07:43:17;10.10;99.90
27900;DHT22;15243;50.726;7.080;2022-09-27T07:45:45;10.30;99.90
27900;DHT22;15243;50.726;7.080;2022-09-27T07:48:14;10.40;99.90
27900;DHT22;15243;50.726;7.080;2022-09-27T07:50:42;10.30;99.90
27900;DHT22;15243;50.726;7.080;2022-09-27T07:53:09;10.50;99.90
27900;DHT22;15243;50.726;7.080;2022-09-27T07:55:39;10.50;99.90
27900;DHT22;15243;50.726;7.080;2022-09-27T07:58:09;10.40;99.90
27900;DHT22;15243;50.726;7.080;2022-09-27T08:00:36;10.50;99.90
27900;DHT22;15243;50.726;7.080;2022-09-27T08:03:09;10.50;99.90
27900;DHT22;15243;50.726;7.080;2022-09-27T08:05:36;10.50;99.90
27900;DHT22;15243;50.726;7.080;2022-09-27T08:08:03;10.50;99.90
27900;DHT22;15243;50.726;7.080;2022-09-27T08:10:31;10.60;99.90
27900;DHT22;15243;50.726;7.080;2022-09-27T08:13:03;10.60;99.90
27900;DHT22;15243;50.726;7.080;2022-09-27T08:15:31;10.70;99.90
27900;DHT22;15243;50.726;7.080;2022-09-27T08:17:58;10.80;99.90
27900;DHT22;15243;50.726;7.080;2022-09-27T08:20:25;10.80;99.90
27900;DHT22;15243;50.726;7.080;2022-09-27T08:22:51;10.80;99.90
27900;DHT22;15243;50.726;7.080;2022-09-27T08:25:18;10.70;99.90
27900;DHT22;15243;50.726;7.080;2022-09-27T08:27:55;10.70;99.90
27900;DHT22;15243;50.726;7.080;2022-09-27T08:30:23;10.80;99.90
27900;DHT22;15243;50.726;7.080;2022-09-27T08:32:57;10.80;99.90
27900;DHT22;15243;50.726;7.080;2022-09-27T08:35:25;11.00;99.90
27900;DHT22;15243;50.726;7.080;2022-09-27T08:37:55;11.10;99.90
27900;DHT22;15243;50.726;7.080;2022-09-27T08:40:23;11.00;99.90
27900;DHT22;15243;50.726;7.080;2022-09-27T08:45:41;11.00;99.90
27900;DHT22;15243;50.726;7.080;2022-09-27T08:48:15;11.10;99.90
27900;DHT22;15243;50.726;7.080;2022-09-27T08:50:45;11.20;99.90
27900;DHT22;15243;50.726;7.080;2022-09-27T08:53:26;11.20;99.90
27900;DHT22;15243;50.726;7.080;2022-09-27T08:55:56;11.20;99.90
27900;DHT22;15243;50.726;7.080;2022-09-27T08:58:38;11.10;99.90
27900;DHT22;15243;50.726;7.080;2022-09-27T09:01:12;11.00;99.90
27900;DHT22;15243;50.726;7.080;2022-09-27T09:03:47;11.20;99.90
27900;DHT22;15243;50.726;7.080;2022-09-27T09:06:27;11.20;99.90
27900;DHT22;15243;50.726;7.080;2022-09-27T09:09:25;11.20;99.90
27900;DHT22;15243;50.726;7.080;2022-09-27T09:12:07;11.20;99.90
27900;DHT22;15243;50.726;7.080;2022-09-27T09:15:38;11.20;99.90
27900;DHT22;15243;50.726;7.080;2022-09-27T09:29:44;11.50;99.90
27900;DHT22;15243;50.726;7.080;2022-09-27T09:32:52;11.60;99.90
27900;DHT22;15243;50.726;7.080;2022-09-27T09:35:31;11.60;99.90
27900;DHT22;15243;50.726;7.080;2022-09-27T09:38:10;11.80;99.90
27900;DHT22;15243;50.726;7.080;2022-09-27T09:43:23;11.80;99.90
27900;DHT22;15243;50.726;7.080;2022-09-27T09:46:01;12.00;99.90
27900;DHT22;15243;50.726;7.080;2022-09-27T09:48:52;12.20;99.90
27900;DHT22;15243;50.726;7.080;2022-09-27T09:51:27;12.20;99.90
27900;DHT22;15243;50.726;7.080;2022-09-27T09:56:35;12.10;99.90
27900;DHT22;15243;50.726;7.080;2022-09-27T09:59:12;12.30;99.90
27900;DHT22;15243;50.726;7.080;2022-09-27T10:01:43;12.60;99.90
27900;DHT22;15243;50.726;7.080;2022-09-27T10:04:18;12.70;99.90
27900;DHT22;15243;50.726;7.080;2022-09-27T10:06:46;12.80;99.90
27900;DHT22;15243;50.726;7.080;2022-09-27T10:09:15;12.50;99.90
27900;DHT22;15243;50.726;7.080;2022-09-27T10:11:44;12.40;99.90
27900;DHT22;15243;50.726;7.080;2022-09-27T10:14:14;12.30;99.90
27900;DHT22;15243;50.726;7.080;2022-09-27T10:16:45;12.20;99.90
27900;DHT22;15243;50.726;7.080;2022-09-27T10:19:17;12.20;99.90
27900;DHT22;15243;50.726;7.080;2022-09-27T10:21:48;12.30;99.90
27900;DHT22;15243;50.726;7.080;2022-09-27T10:24:16;12.40;99.90
27900;DHT22;15243;50.726;7.080;2022-09-27T10:26:46;12.40;99.90
27900;DHT22;15243;50.726;7.080;2022-09-27T10:29:24;12.30;99.90
27900;DHT22;15243;50.726;7.080;2022-09-27T10:32:02;12.40;99.90
27900;DHT22;15243;50.726;7.080;2022-09-27T10:34:39;12.40;99.90
27900;DHT22;15243;50.726;7.080;2022-09-27T10:39:38;12.40;99.90
27900;DHT22;15243;50.726;7.080;2022-09-27T10:42:31;12.30;99.90
27900;DHT22;15243;50.726;7.080;2022-09-27T10:45:24;12.30;99.90
27900;DHT22;15243;50.726;7.080;2022-09-27T10:47:53;12.20;99.90
27900;DHT22;15243;50.726;7.080;2022-09-27T10:50:27;12.40;99.90
27900;DHT22;15243;50.726;7.080;2022-09-27T10:53:18;12.40;99.90
27900;DHT22;15243;50.726;7.080;2022-09-27T10:55:47;12.40;99.90
27900;DHT22;15243;50.726;7.080;2022-09-27T10:58:35;12.40;99.90
27900;DHT22;15243;50.726;7.080;2022-09-27T11:01:06;12.20;99.90
27900;DHT22;15243;50.726;7.080;2022-09-27T11:03:45;12.10;99.90
27900;DHT22;15243;50.726;7.080;2022-09-27T11:06:29;12.10;99.90
27900;DHT22;15243;50.726;7.080;2022-09-27T11:09:14;12.20;99.90
27900;DHT22;15243;50.726;7.080;2022-09-27T11:11:42;12.20;99.90
27900;DHT22;15243;50.726;7.080;2022-09-27T11:14:18;12.30;99.90
27900;DHT22;15243;50.726;7.080;2022-09-27T11:17:06;12.20;99.90
27900;DHT22;15243;50.726;7.080;2022-09-27T11:19:41;12.30;99.90
27900;DHT22;15243;50.726;7.080;2022-09-27T11:39:28;12.40;99.90
27900;DHT22;15243;50.726;7.080;2022-09-27T11:45:38;12.30;99.90
27900;DHT22;15243;50.726;7.080;2022-09-27T11:56:20;12.20;99.90
27900;DHT22;15243;50.726;7.080;2022-09-27T11:59:25;12.20;99.90
27900;DHT22;15243;50.726;7.080;2022-09-27T12:02:28;12.50;99.90
27900;DHT22;15243;50.726;7.080;2022-09-27T12:16:56;12.40;99.90
27900;DHT22;15243;50.726;7.080;2022-09-27T12:19:29;12.40;99.90
27900;DHT22;15243;50.726;7.080;2022-09-27T12:22:02;12.60;99.90
27900;DHT22;15243;50.726;7.080;2022-09-27T12:24:32;12.50;99.90
27900;DHT22;15243;50.726;7.080;2022-09-27T12:27:08;12.40;99.90
27900;DHT22;15243;50.726;7.080;2022-09-27T12:29:38;12.30;99.90
27900;DHT22;15243;50.726;7.080;2022-09-27T12:35:04;12.30;99.90
27900;DHT22;15243;50.726;7.080;2022-09-27T12:42:46;12.40;99.90
27900;DHT22;15243;50.726;7.080;2022-09-27T12:45:15;12.50;99.90
27900;DHT22;15243;50.726;7.080;2022-09-27T12:48:17;12.50;99.90
27900;DHT22;15243;50.726;7.080;2022-09-27T12:51:00;12.40;99.90
27900;DHT22;15243;50.726;7.080;2022-09-27T12:58:51;12.50;99.90
27900;DHT22;15243;50.726;7.080;2022-09-27T13:04:52;12.70;99.90
27900;DHT22;15243;50.726;7.080;2022-09-27T13:12:28;12.40;99.90
27900;DHT22;15243;50.726;7.080;2022-09-27T13:15:05;12.60;99.90
27900;DHT22;15243;50.726;7.080;2022-09-27T13:23:03;13.20;99.90
27900;DHT22;15243;50.726;7.080;2022-09-27T13:30:55;12.60;99.90
27900;DHT22;15243;50.726;7.080;2022-09-27T13:33:44;12.70;99.90
27900;DHT22;15243;50.726;7.080;2022-09-27T13:46:54;11.80;99.90
27900;DHT22;15243;50.726;7.080;2022-09-27T13:52:00;11.50;99.90
27900;DHT22;15243;50.726;7.080;2022-09-27T13:54:56;11.30;99.90
27900;DHT22;15243;50.726;7.080;2022-09-27T13:58:00;11.30;99.90
27900;DHT22;15243;50.726;7.080;2022-09-27T14:00:38;11.20;99.90
27900;DHT22;15243;50.726;7.080;2022-09-27T14:05:49;10.80;99.90
27900;DHT22;15243;50.726;7.080;2022-09-27T14:08:41;10.90;99.90
27900;DHT22;15243;50.726;7.080;2022-09-27T14:11:12;10.90;99.90
27900;DHT22;15243;50.726;7.080;2022-09-27T14:13:40;10.90;99.90
27900;DHT22;15243;50.726;7.080;2022-09-27T14:16:13;11.00;99.90
27900;DHT22;15243;50.726;7.080;2022-09-27T14:18:52;11.20;99.90
27900;DHT22;15243;50.726;7.080;2022-09-27T14:21:39;11.30;99.90
27900;DHT22;15243;50.726;7.080;2022-09-27T14:24:32;11.40;99.90
27900;DHT22;15243;50.726;7.080;2022-09-27T14:27:24;11.80;99.90
27900;DHT22;15243;50.726;7.080;2022-09-27T14:32:33;13.50;99.90
27900;DHT22;15243;50.726;7.080;2022-09-27T14:37:54;13.10;99.90
27900;DHT22;15243;50.726;7.080;2022-09-27T14:40:22;12.70;99.90
27900;DHT22;15243;50.726;7.080;2022-09-27T14:42:53;12.30;99.90
27900;DHT22;15243;50.726;7.080;2022-09-27T14:45:33;12.40;99.90
27900;DHT22;15243;50.726;7.080;2022-09-27T14:48:26;12.20;99.90
27900;DHT22;15243;50.726;7.080;2022-09-27T14:51:02;12.40;99.90
27900;DHT22;15243;50.726;7.080;2022-09-27T14:53:35;12.10;99.90
27900;DHT22;15243;50.726;7.080;2022-09-27T14:56:03;12.00;99.90
27900;DHT22;15243;50.726;7.080;2022-09-27T14:58:32;12.10;99.90
27900;DHT22;15243;50.726;7.080;2022-09-27T15:01:18;12.10;99.90
27900;DHT22;15243;50.726;7.080;2022-09-27T15:03:46;12.40;99.90
27900;DHT22;15243;50.726;7.080;2022-09-27T15:06:17;12.40;99.90
27900;DHT22;15243;50.726;7.080;2022-09-27T15:08:45;12.50;99.90
27900;DHT22;15243;50.726;7.080;2022-09-27T15:11:16;13.00;99.90
27900;DHT22;15243;50.726;7.080;2022-09-27T15:13:46;13.00;99.90
27900;DHT22;15243;50.726;7.080;2022-09-27T15:16:19;12.50;99.90
27900;DHT22;15243;50.726;7.080;2022-09-27T15:18:48;12.30;99.90
27900;DHT22;15243;50.726;7.080;2022-09-27T15:21:31;12.20;99.90
27900;DHT22;15243;50.726;7.080;2022-09-27T15:24:01;12.00;99.90
27900;DHT22;15243;50.726;7.080;2022-09-27T15:26:43;12.00;99.90
27900;DHT22;15243;50.726;7.080;2022-09-27T15:29:19;12.00;99.90
27900;DHT22;15243;50.726;7.080;2022-09-27T15:32:03;12.00;99.90
27900;DHT22;15243;50.726;7.080;2022-09-27T15:34:32;11.90;99.90
27900;DHT22;15243;50.726;7.080;2022-09-27T15:37:01;11.80;99.90
27900;DHT22;15243;50.726;7.080;2022-09-27T15:39:32;10.90;99.90
27900;DHT22;15243;50.726;7.080;2022-09-27T15:42:09;10.50;99.90
27900;DHT22;15243;50.726;7.080;2022-09-27T15:49:58;9.90;99.90
27900;DHT22;15243;50.726;7.080;2022-09-27T15:55:13;9.80;99.90
27900;DHT22;15243;50.726;7.080;2022-09-27T15:57:40;9.60;99.90
27900;DHT22;15243;50.726;7.080;2022-09-27T16:00:13;9.40;99.90
27900;DHT22;15243;50.726;7.080;2022-09-27T16:02:40;9.20;99.90
27900;DHT22;15243;50.726;7.080;2022-09-27T16:05:07;9.30;99.90
27900;DHT22;15243;50.726;7.080;2022-09-27T16:07:34;9.40;99.90
27900;DHT22;15243;50.726;7.080;2022-09-27T16:10:04;9.30;99.90
27900;DHT22;15243;50.726;7.080;2022-09-27T16:12:31;9.40;99.90
27900;DHT22;15243;50.726;7.080;2022-09-27T16:14:58;9.50;99.90
27900;DHT22;15243;50.726;7.080;2022-09-27T16:17:24;9.50;99.90
27900;DHT22;15243;50.726;7.080;2022-09-27T16:19:51;9.50;99.90
27900;DHT22;15243;50.726;7.080;2022-09-27T16:22:18;9.60;99.90
27900;DHT22;15243;50.726;7.080;2022-09-27T16:24:45;9.60;99.90
27900;DHT22;15243;50.726;7.080;2022-09-27T16:27:25;9.70;99.90
27900;DHT22;15243;50.726;7.080;2022-09-27T16:29:53;9.70;99.90
27900;DHT22;15243;50.726;7.080;2022-09-27T16:32:20;9.60;99.90
27900;DHT22;15243;50.726;7.080;2022-09-27T16:34:47;9.70;99.90
27900;DHT22;15243;50.726;7.080;2022-09-27T16:37:14;9.50;99.90
27900;DHT22;15243;50.726;7.080;2022-09-27T16:39:40;9.40;99.90
27900;DHT22;15243;50.726;7.080;2022-09-27T16:42:07;9.50;99.90
27900;DHT22;15243;50.726;7.080;2022-09-27T16:44:35;9.50;99.90
27900;DHT22;15243;50.726;7.080;2022-09-27T16:47:02;9.50;99.90
27900;DHT22;15243;50.726;7.080;2022-09-27T16:49:29;9.60;99.90
27900;DHT22;15243;50.726;7.080;2022-09-27T16:52:15;9.50;99.90
27900;DHT22;15243;50.726;7.080;2022-09-27T16:54:42;9.50;99.90
27900;DHT22;15243;50.726;7.080;2022-09-27T16:57:09;9.40;99.90
27900;DHT22;15243;50.726;7.080;2022-09-27T16:59:36;9.30;99.90
27900;DHT22;15243;50.726;7.080;2022-09-27T17:02:03;9.30;99.90
27900;DHT22;15243;50.726;7.080;2022-09-27T17:04:31;9.10;99.90
27900;DHT22;15243;50.726;7.080;2022-09-27T17:06:57;9.20;99.90
27900;DHT22;15243;50.726;7.080;2022-09-27T17:09:24;9.10;99.90
27900;DHT22;15243;50.726;7.080;2022-09-27T17:11:51;9.10;99.90
27900;DHT22;15243;50.726;7.080;2022-09-27T17:14:18;9.20;99.90
27900;DHT22;15243;50.726;7.080;2022-09-27T17:16:45;9.10;99.90
27900;DHT22;15243;50.726;7.080;2022-09-27T17:19:14;9.10;99.90
27900;DHT22;15243;50.726;7.080;2022-09-27T17:21:41;9.00;99.90
27900;DHT22;15243;50.726;7.080;2022-09-27T17:24:09;9.00;99.90
27900;DHT22;15243;50.726;7.080;2022-09-27T17:26:36;9.00;99.90
27900;DHT22;15243;50.726;7.080;2022-09-27T17:29:04;9.10;99.90
27900;DHT22;15243;50.726;7.080;2022-09-27T17:31:31;9.00;99.90
27900;DHT22;15243;50.726;7.080;2022-09-27T17:34:00;9.10;99.90
27900;DHT22;15243;50.726;7.080;2022-09-27T17:36:29;9.00;99.90
27900;DHT22;15243;50.726;7.080;2022-09-27T17:38:58;9.10;99.90
27900;DHT22;15243;50.726;7.080;2022-09-27T17:41:26;9.10;99.90
27900;DHT22;15243;50.726;7.080;2022-09-27T17:43:55;9.00;99.90
27900;DHT22;15243;50.726;7.080;2022-09-27T17:46:32;9.00;99.90
27900;DHT22;15243;50.726;7.080;2022-09-27T17:48:59;9.00;99.90
27900;DHT22;15243;50.726;7.080;2022-09-27T17:51:47;9.10;99.90
27900;DHT22;15243;50.726;7.080;2022-09-27T17:54:14;9.20;99.90
27900;DHT22;15243;50.726;7.080;2022-09-27T17:56:42;9.20;99.90
27900;DHT22;15243;50.726;7.080;2022-09-27T17:59:11;9.20;99.90
27900;DHT22;15243;50.726;7.080;2022-09-27T18:01:38;9.10;99.90
27900;DHT22;15243;50.726;7.080;2022-09-27T18:04:07;9.20;99.90
27900;DHT22;15243;50.726;7.080;2022-09-27T18:06:40;9.20;99.90
27900;DHT22;15243;50.726;7.080;2022-09-27T18:09:09;9.30;99.90
27900;DHT22;15243;50.726;7.080;2022-09-27T18:11:37;9.20;99.90
27900;DHT22;15243;50.726;7.080;2022-09-27T18:14:04;9.20;99.90
27900;DHT22;15243;50.726;7.080;2022-09-27T18:16:34;9.30;99.90
27900;DHT22;15243;50.726;7.080;2022-09-27T18:19:06;9.30;99.90
27900;DHT22;15243;50.726;7.080;2022-09-27T18:21:34;9.30;99.90
27900;DHT22;15243;50.726;7.080;2022-09-27T18:24:01;9.30;99.90
27900;DHT22;15243;50.726;7.080;2022-09-27T18:26:33;9.30;99.90
27900;DHT22;15243;50.726;7.080;2022-09-27T18:31:31;9.20;99.90
27900;DHT22;15243;50.726;7.080;2022-09-27T18:33:58;9.20;99.90
27900;DHT22;15243;50.726;7.080;2022-09-27T18:36:26;9.20;99.90
27900;DHT22;15243;50.726;7.080;2022-09-27T18:38:56;9.20;99.90
27900;DHT22;15243;50.726;7.080;2022-09-27T18:41:24;9.30;99.90
27900;DHT22;15243;50.726;7.080;2022-09-27T18:44:00;9.30;99.90
27900;DHT22;15243;50.726;7.080;2022-09-27T18:46:29;9.30;99.90
27900;DHT22;15243;50.726;7.080;2022-09-27T18:49:07;9.30;99.90
27900;DHT22;15243;50.726;7.080;2022-09-27T18:51:34;9.30;99.90
27900;DHT22;15243;50.726;7.080;2022-09-27T18:54:11;9.30;99.90